Stations météo

réclame
Mon MeteoGroup
Gent/Industry Zo, Pays-Bas (6431): Température de l'air & dewpoint: 19.02.2018 22:00:00 - 25.02.2018 22:00:00 (CET)Gent/Industry Zo, Pays-Bas (6431): Vitesse du vent & gusts: 19.02.2018 22:00:00 - 25.02.2018 22:00:00 (CET)Gent/Industry Zo, Pays-Bas (6431): Direction du vent: 19.02.2018 22:00:00 - 25.02.2018 22:00:00 (CET)Gent/Industry Zo, Pays-Bas (6431): reduced air pressure: 19.02.2018 22:00:00 - 25.02.2018 22:00:00 (CET)Gent/Industry Zo, Pays-Bas (6431): Ensoleillement: 19.02.2018 22:00:00 - 25.02.2018 22:00:00 (CET)Gent/Industry Zo, Pays-Bas (6431): Quantités de précipitations: 19.02.2018 22:00:00 - 25.02.2018 22:00:00 (CET)
Date & Time tt [°C] td [°C] ff [km/h] ff [knt] fx [km/h] fx [knt] dd ppp [hPa] sd [min] rr [mm]
25.02.2018 22:00:00 -1,7 -9,7 14 8 - - ENE 1028,9 - -
25.02.2018 21:00:00 -1,4 -9,6 15 8 29 16 NE 1028,8 0 0,0
25.02.2018 20:00:00 -1,1 -9,6 14 7 26 14 NE 1028,5 0 0,0
25.02.2018 19:00:00 -0,5 -10,5 11 6 25 13 NE 1028,4 - 0,0
25.02.2018 18:00:00 0,7 -12,2 13 7 29 16 NE 1027,9 - 0,0
25.02.2018 17:00:00 1,4 -13,0 13 7 29 16 NE 1027,7 - 0,0
25.02.2018 16:00:00 1,6 -12,4 15 8 30 16 NE 1027,9 - 0,0
25.02.2018 15:00:00 2,0 -12,5 13 7 32 18 ENE 1028,0 - 0,0
25.02.2018 14:00:00 1,9 -12,5 16 8 35 19 ENE 1028,2 - 0,0
25.02.2018 13:00:00 1,3 -12,6 18 10 - - ENE 1028,5 - 0,0
25.02.2018 12:00:00 0,8 -11,8 16 9 33 18 E 1028,8 - 0,0
25.02.2018 11:00:00 -0,5 -11,0 18 10 36 19 E 1028,9 - 0,0
25.02.2018 10:00:00 -1,4 -10,3 18 10 37 20 ENE 1028,6 - 0,0
25.02.2018 09:00:00 -2,4 -9,4 16 9 31 17 ENE 1028,1 - 0,0
25.02.2018 08:00:00 -2,7 -9,4 18 10 32 18 ENE 1027,8 - 0,0
25.02.2018 07:00:00 -2,3 -9,3 18 10 34 19 ENE 1027,3 0 0,0
25.02.2018 06:00:00 -1,9 -9,0 15 8 30 16 ENE 1027,0 0 0,0
25.02.2018 05:00:00 -1,6 -8,3 16 9 31 17 ENE 1026,5 0 0,0
25.02.2018 04:00:00 -1,3 -8,3 16 9 33 18 ENE 1026,3 0 0,0
25.02.2018 03:00:00 -0,9 -8,0 19 10 37 20 ENE 1025,9 0 0,0
25.02.2018 02:00:00 -0,5 -7,6 16 8 31 17 ENE 1025,8 0 0,0
25.02.2018 01:00:00 -0,1 -6,8 18 10 - - ENE 1025,8 0 0,0
25.02.2018 00:00:00 0,0 -6,7 18 10 40 21 ENE 1025,7 0 0,0
24.02.2018 23:00:00 0,7 -6,4 21 12 40 21 ENE 1025,3 0 0,0
24.02.2018 22:00:00 0,9 -6,3 22 12 43 23 ENE 1024,8 0 0,0
24.02.2018 21:00:00 1,2 -5,2 20 11 40 21 ENE 1024,5 0 0,0
24.02.2018 20:00:00 1,6 -4,1 18 10 37 20 ENE 1024,1 0 0,0
24.02.2018 19:00:00 2,1 -4,4 14 8 35 19 ENE 1023,7 - 0,0
24.02.2018 18:00:00 2,9 -5,3 18 10 40 22 ENE 1023,1 - 0,0
24.02.2018 17:00:00 5,0 -6,0 16 8 37 20 ENE 1022,8 - 0,0
24.02.2018 16:00:00 5,8 -7,2 23 12 47 26 ENE 1022,4 - 0,0
24.02.2018 15:00:00 6,5 -7,8 21 11 45 25 E 1022,1 - 0,0
24.02.2018 14:00:00 5,1 -9,0 24 13 43 23 ENE 1022,3 - 0,0
24.02.2018 13:00:00 4,6 -9,5 22 12 40 22 E 1022,5 - 0,0
24.02.2018 12:00:00 3,4 -10,0 19 11 37 20 E 1022,8 - 0,0
24.02.2018 11:00:00 1,8 -9,5 16 9 34 19 E 1022,9 - 0,0
24.02.2018 10:00:00 -0,3 -9,4 17 9 35 19 E 1022,7 - 0,0
24.02.2018 09:00:00 -1,7 -8,8 18 10 32 17 ENE 1022,3 - 0,0
24.02.2018 08:00:00 -2,4 -9,3 18 10 28 15 ENE 1021,9 - 0,0
24.02.2018 07:00:00 -2,2 -8,9 14 8 28 15 E 1021,5 0 0,0
24.02.2018 06:00:00 -2,0 -8,2 14 8 28 15 ENE 1021,1 0 0,0
24.02.2018 05:00:00 -1,7 -8,0 16 9 27 15 ENE 1020,8 0 0,0
24.02.2018 04:00:00 -1,5 -7,3 15 8 29 15 ENE 1020,8 0 0,0
24.02.2018 03:00:00 -1,2 -6,5 17 9 32 17 ENE 1020,7 0 0,0
24.02.2018 02:00:00 -0,9 -6,1 15 8 31 17 ENE 1020,5 0 0,0
24.02.2018 01:00:00 -0,9 -5,6 14 8 29 16 ENE 1020,5 0 0,0
24.02.2018 00:00:00 -0,2 -5,5 18 10 30 16 ENE 1020,3 0 0,0
23.02.2018 23:00:00 0,2 -5,5 15 8 27 15 ENE 1020,2 0 0,0
23.02.2018 22:00:00 0,0 -5,4 10 6 27 15 NE 1020,3 0 0,0
23.02.2018 21:00:00 0,6 -5,4 11 6 23 12 NE 1020,2 0 0,0
23.02.2018 20:00:00 0,8 -5,2 9 5 18 10 NE 1020,1 0 0,0
23.02.2018 19:00:00 1,6 -5,3 11 6 26 14 NE 1019,9 - 0,0
23.02.2018 18:00:00 2,5 -5,1 11 6 33 18 NE 1019,9 - 0,0
23.02.2018 17:00:00 3,4 -5,0 16 9 36 19 ENE 1019,8 - 0,0
23.02.2018 16:00:00 3,7 -4,5 16 8 31 17 NE 1020,0 - 0,0
23.02.2018 15:00:00 3,7 -6,4 12 6 36 20 ENE 1020,3 - 0,0
23.02.2018 14:00:00 3,6 -5,0 18 10 32 17 E 1020,6 - 0,0
23.02.2018 13:00:00 2,6 -5,2 22 12 37 20 E 1021,0 - 0,0
23.02.2018 12:00:00 1,9 -3,8 16 8 35 19 ENE 1021,6 - 0,0
23.02.2018 11:00:00 1,3 -2,8 16 9 36 19 ENE 1022,0 - 0,0
23.02.2018 10:00:00 0,1 -2,9 10 6 21 11 NE 1022,4 - 0,0
23.02.2018 09:00:00 -1,3 -3,4 12 6 22 12 NE 1022,4 - 0,0
23.02.2018 08:00:00 -1,8 -3,5 10 6 19 11 NE 1022,1 - 0,0
23.02.2018 07:00:00 -1,8 -3,5 11 6 18 10 NE 1022,1 0 0,0
23.02.2018 06:00:00 -1,6 -3,4 10 5 20 11 NE 1021,9 0 0,0
23.02.2018 05:00:00 -1,3 -3,3 11 6 19 10 NE 1021,9 0 0,0
23.02.2018 04:00:00 -1,2 -3,3 11 6 23 12 NE 1021,9 0 0,0
23.02.2018 03:00:00 -0,9 -3,5 10 6 19 10 NE 1022,4 0 0,0
23.02.2018 02:00:00 -0,6 -4,1 10 6 19 11 NE 1022,6 0 0,0
23.02.2018 01:00:00 -0,4 -4,0 11 6 20 11 NE 1022,7 0 0,0
23.02.2018 00:00:00 0,2 -3,7 11 6 21 11 NE 1022,7 0 0,0
22.02.2018 23:00:00 0,7 -3,2 11 6 25 13 NE 1022,7 0 0,0
22.02.2018 22:00:00 1,2 -3,0 14 7 24 13 ENE 1022,5 0 0,0
22.02.2018 21:00:00 1,4 -3,1 11 6 22 12 NE 1022,4 0 0,0
22.02.2018 20:00:00 2,2 -3,7 13 7 22 12 NE 1022,4 0 0,0
22.02.2018 19:00:00 2,9 -3,2 11 6 32 17 ENE 1022,1 - 0,0
22.02.2018 18:00:00 3,9 -3,6 12 7 34 18 NE 1022,0 - 0,0
22.02.2018 17:00:00 4,8 -2,5 11 6 29 15 NE 1022,0 - 0,0
22.02.2018 16:00:00 5,2 -4,0 16 9 34 18 NE 1022,2 - 0,0
22.02.2018 15:00:00 4,9 -4,6 16 9 30 16 NE 1022,7 - 0,0
22.02.2018 14:00:00 5,0 -4,5 16 9 30 16 ENE 1023,4 - 0,0
22.02.2018 13:00:00 4,0 -3,2 11 6 25 14 ENE 1023,8 - 0,0
22.02.2018 12:00:00 3,2 -3,6 14 8 29 16 ENE 1024,0 - 0,0
22.02.2018 11:00:00 2,0 -3,1 15 8 23 13 ENE 1024,1 - 0,0
22.02.2018 10:00:00 -0,2 -3,2 10 5 21 11 NE 1024,2 - 0,0
22.02.2018 09:00:00 -1,4 -3,7 10 6 21 11 NE 1023,9 - 0,0
22.02.2018 08:00:00 -1,7 -3,9 11 6 20 11 NE 1023,8 - 0,0
22.02.2018 07:00:00 -1,7 -3,7 11 6 19 10 NE 1023,4 0 0,0
22.02.2018 06:00:00 -1,7 -3,5 9 5 16 9 NE 1023,3 0 0,0
22.02.2018 05:00:00 -1,4 -3,4 9 5 19 10 NE 1023,2 0 0,0
22.02.2018 04:00:00 -1,2 -3,2 9 5 17 9 NE 1023,3 0 0,0
22.02.2018 03:00:00 -1,1 -3,0 8 4 16 9 NNE 1023,8 0 0,0
22.02.2018 02:00:00 -0,6 -2,8 9 5 16 9 NE 1024,0 0 0,0
22.02.2018 01:00:00 -0,3 -2,4 7 4 18 10 NE 1024,4 0 0,0
22.02.2018 00:00:00 0,0 -1,9 8 5 15 8 NE 1024,6 0 0,0
21.02.2018 23:00:00 0,4 -1,4 5 3 13 7 NNE 1024,9 0 0,0
21.02.2018 22:00:00 0,9 -1,3 6 3 16 8 NE 1024,9 0 0,0
21.02.2018 21:00:00 1,4 -1,3 6 4 14 7 NE 1024,8 0 0,0
21.02.2018 20:00:00 1,8 -0,8 5 3 11 6 NNE 1024,7 0 0,0
21.02.2018 19:00:00 2,8 -0,9 4 2 14 8 NNE 1024,7 - 0,0
21.02.2018 18:00:00 3,7 -0,9 9 5 26 14 NNE 1024,5 - 0,0
21.02.2018 17:00:00 4,5 -1,1 12 6 23 12 NNE 1024,4 - 0,0
21.02.2018 16:00:00 4,7 -1,1 12 7 23 12 NNE 1024,7 - 0,0
21.02.2018 15:00:00 4,5 -1,1 10 6 21 11 NE 1025,4 - 0,0
21.02.2018 14:00:00 - - - - - - - - - -
21.02.2018 13:00:00 3,6 -1,6 7 4 - - NNE 1026,5 - -
21.02.2018 12:00:00 2,7 -1,0 11 6 18 10 NNE 1026,5 - -
21.02.2018 11:00:00 1,5 -1,1 11 6 18 10 NNE 1026,4 - -
21.02.2018 10:00:00 0,5 -0,9 8 5 16 9 NE 1026,3 - 0,0
21.02.2018 09:00:00 -0,3 -1,2 7 4 13 7 NE 1025,8 - 0,0
21.02.2018 08:00:00 -0,5 -1,4 6 3 13 7 NE 1025,6 - 0,0
21.02.2018 07:00:00 -0,5 -1,5 7 4 11 6 NNE 1025,6 0 0,0
21.02.2018 06:00:00 -0,3 -1,2 6 3 12 6 NNE 1025,3 0 0,0
21.02.2018 05:00:00 -0,1 -1,1 5 3 14 8 NNE 1024,9 0 0,0
21.02.2018 04:00:00 0,0 -0,9 6 3 11 6 NE 1024,6 0 0,0
21.02.2018 03:00:00 0,2 -1,1 5 3 12 7 NNE 1024,4 0 0,0
21.02.2018 02:00:00 1,0 -0,7 9 5 21 11 NE 1024,0 0 0,0
21.02.2018 01:00:00 1,4 -0,3 11 6 22 12 NE 1023,8 0 0,0
21.02.2018 00:00:00 1,6 0,4 9 5 14 8 NE 1023,5 0 0,0
20.02.2018 23:00:00 2,3 0,8 6 3 16 9 NNE 1023,0 0 0,0
20.02.2018 22:00:00 3,1 0,9 8 4 16 9 NE 1022,3 0 0,0
20.02.2018 21:00:00 3,5 0,7 9 5 16 9 NE 1021,7 0 0,0
20.02.2018 20:00:00 3,7 0,7 8 4 16 9 NE 1020,8 0 0,0
20.02.2018 19:00:00 3,9 1,2 7 4 13 7 NNE 1020,2 - 0,0
20.02.2018 18:00:00 4,7 1,2 5 3 15 8 NNE 1019,6 - 0,0
20.02.2018 17:00:00 5,1 1,5 8 4 16 9 NNE 1019,1 - 0,0
20.02.2018 16:00:00 5,5 0,9 8 4 12 7 N 1018,8 - 0,0
20.02.2018 15:00:00 6,0 0,4 5 3 11 6 N 1018,8 - 0,0
20.02.2018 14:00:00 6,0 0,5 5 3 9 5 SW 1019,0 - 0,0
20.02.2018 13:00:00 5,5 0,0 7 4 13 7 E 1019,1 - 0,0
20.02.2018 12:00:00 5,2 0,4 8 4 14 7 ESE 1019,1 - 0,0
20.02.2018 11:00:00 4,0 1,4 9 5 16 9 E 1018,9 - 0,0
20.02.2018 10:00:00 3,3 1,5 6 4 11 6 NNE 1019,1 - 0,0
20.02.2018 09:00:00 3,3 1,4 4 2 11 6 ENE 1018,6 - 0,0
20.02.2018 08:00:00 3,0 1,4 4 2 15 8 NNE 1018,5 - 0,0
20.02.2018 07:00:00 3,3 2,5 7 4 17 9 ESE 1017,9 0 0,0
20.02.2018 06:00:00 3,8 3,1 7 4 14 8 E 1017,9 0 0,0
20.02.2018 05:00:00 3,7 3,2 6 3 12 7 E 1017,7 0 0,0
20.02.2018 04:00:00 3,3 2,9 5 3 14 7 ENE 1017,6 0 0,0
20.02.2018 03:00:00 3,4 3,0 9 5 14 8 E 1017,7 0 0,0
20.02.2018 02:00:00 3,4 3,1 8 5 16 8 E 1017,3 0 0,0
20.02.2018 01:00:00 3,5 3,2 7 4 14 8 E 1017,3 0 0,0
20.02.2018 00:00:00 3,7 3,3 6 3 23 12 ESE 1017,2 0 0,1
19.02.2018 23:00:00 3,6 3,2 9 5 24 13 ESE 1016,9 0 0,0
19.02.2018 22:00:00 3,8 3,4 10 5 21 11 ESE 1017,0 0 0,1

tt = Température de l'air
td = dewpoint
ff = Vitesse du vent
fx = gusts
dd = Direction du vent
ppp = reduced air pressure
sd = Ensoleillement
rr = Quantités de précipitations

stations d'obs. à proximité